createdAt,value
2019-01-18T00:01:51.977Z,98440.97
2019-01-18T00:04:20.804Z,98436.68
2019-01-18T00:06:49.605Z,98440.88
2019-01-18T00:09:18.493Z,98439.81
2019-01-18T00:11:47.839Z,98436.55
2019-01-18T00:14:16.627Z,98442.41
2019-01-18T00:16:45.569Z,98448.43
2019-01-18T00:19:14.382Z,98447.81
2019-01-18T00:21:43.324Z,98450.19
2019-01-18T00:24:12.145Z,98452.16
2019-01-18T00:26:40.957Z,98464.50
2019-01-18T00:29:09.771Z,98462.61
2019-01-18T00:31:38.557Z,98462.98
2019-01-18T00:34:07.629Z,98465.51
2019-01-18T00:36:36.477Z,98464.98
2019-01-18T00:39:07.947Z,98470.16
2019-01-18T00:41:36.899Z,98468.70
2019-01-18T00:44:06.060Z,98470.76
2019-01-18T00:46:34.866Z,98468.27
2019-01-18T00:49:03.820Z,98476.80
2019-01-18T00:51:32.609Z,98483.03
2019-01-18T00:54:01.492Z,98480.38
2019-01-18T00:56:30.268Z,98486.86
2019-01-18T00:58:59.224Z,98489.22
2019-01-18T01:01:28.146Z,98497.83
2019-01-18T01:03:57.118Z,98496.77
2019-01-18T01:06:25.992Z,98497.55
2019-01-18T01:08:54.954Z,98489.81
2019-01-18T01:11:24.189Z,98489.30
2019-01-18T01:13:53.146Z,98500.19
2019-01-18T01:16:22.006Z,98504.47
2019-01-18T01:18:50.879Z,98509.87
2019-01-18T01:21:19.854Z,98503.16
2019-01-18T01:23:48.665Z,98512.45
2019-01-18T01:26:17.536Z,98522.06
2019-01-18T01:28:46.340Z,98530.37
2019-01-18T01:31:15.296Z,98531.58
2019-01-18T01:33:44.257Z,98535.34
2019-01-18T01:36:13.204Z,98536.03
2019-01-18T01:38:42.088Z,98546.84
2019-01-18T01:41:10.981Z,98546.07
2019-01-18T01:43:39.983Z,98553.84
2019-01-18T01:46:08.855Z,98556.39
2019-01-18T01:48:37.828Z,98558.83
2019-01-18T01:51:06.773Z,98564.98
2019-01-18T01:53:35.683Z,98567.34
2019-01-18T01:56:04.734Z,98560.57
2019-01-18T01:58:33.607Z,98560.57
2019-01-18T02:01:02.462Z,98572.70
2019-01-18T02:03:31.423Z,98573.08
2019-01-18T02:06:00.315Z,98585.88
2019-01-18T02:08:29.190Z,98577.17
2019-01-18T02:10:58.092Z,98585.19
2019-01-18T02:13:26.896Z,98588.75
2019-01-18T02:15:55.947Z,98583.89
2019-01-18T02:18:24.814Z,98592.41
2019-01-18T02:20:53.765Z,98592.80
2019-01-18T02:23:22.757Z,98608.52
2019-01-18T02:25:51.763Z,98600.13
2019-01-18T02:28:20.759Z,98603.09
2019-01-18T02:30:49.735Z,98611.31
2019-01-18T02:33:18.818Z,98605.52
2019-01-18T02:35:47.712Z,98611.63
2019-01-18T02:38:16.635Z,98617.54
2019-01-18T02:40:45.734Z,98623.13
2019-01-18T02:43:14.539Z,98612.00
2019-01-18T02:45:43.425Z,98615.19
2019-01-18T02:48:12.385Z,98622.47
2019-01-18T02:50:41.206Z,98622.19
2019-01-18T02:53:09.995Z,98628.83
2019-01-18T02:55:38.958Z,98627.75
2019-01-18T02:58:07.762Z,98631.95
2019-01-18T03:00:36.716Z,98626.02
2019-01-18T03:03:05.627Z,98637.48
2019-01-18T03:05:34.771Z,98637.39
2019-01-18T03:08:03.847Z,98643.02
2019-01-18T03:10:33.124Z,98644.43
2019-01-18T03:13:02.072Z,98646.63
2019-01-18T03:15:30.973Z,98645.60
2019-01-18T03:17:59.764Z,98646.38
2019-01-18T03:20:28.716Z,98639.38
2019-01-18T03:22:57.598Z,98645.97
2019-01-18T03:25:28.679Z,98647.27
2019-01-18T03:27:57.725Z,98651.92
2019-01-18T03:30:26.685Z,98648.97
2019-01-18T03:32:55.652Z,98654.22
2019-01-18T03:35:24.998Z,98665.73
2019-01-18T03:37:54.108Z,98665.36
2019-01-18T03:40:23.106Z,98660.91
2019-01-18T03:42:52.468Z,98667.45
2019-01-18T03:45:21.417Z,98666.70
2019-01-18T03:47:50.358Z,98667.22
2019-01-18T03:50:21.691Z,98675.06
2019-01-18T03:52:50.642Z,98675.31
2019-01-18T03:55:19.790Z,98669.36
2019-01-18T03:57:48.661Z,98668.94
2019-01-18T04:00:26.426Z,98675.47
2019-01-18T04:02:53.340Z,98674.09
2019-01-18T04:05:22.323Z,98674.95
2019-01-18T04:07:51.261Z,98686.87
2019-01-18T04:10:20.575Z,98682.31
2019-01-18T04:12:49.528Z,98692.75
2019-01-18T04:15:19.642Z,98693.86
2019-01-18T04:17:48.575Z,98698.52
2019-01-18T04:20:18.175Z,98694.94
2019-01-18T04:22:47.052Z,98694.65
2019-01-18T04:25:20.008Z,98694.98
2019-01-18T04:27:48.957Z,98698.82
2019-01-18T04:30:20.031Z,98697.64
2019-01-18T04:32:49.104Z,98702.53
2019-01-18T04:35:18.121Z,98703.38
2019-01-18T04:37:47.065Z,98707.77
2019-01-18T04:40:18.513Z,98710.48
2019-01-18T04:42:47.465Z,98709.73
2019-01-18T04:45:16.406Z,98714.14
2019-01-18T04:47:45.350Z,98718.39
2019-01-18T04:50:16.891Z,98719.80
2019-01-18T04:52:46.022Z,98729.38
2019-01-18T04:55:14.997Z,98727.20
2019-01-18T04:57:43.937Z,98730.75
2019-01-18T05:00:21.195Z,98727.46
2019-01-18T05:02:50.251Z,98736.78
2019-01-18T05:05:19.506Z,98735.41
2019-01-18T05:07:48.921Z,98743.95
2019-01-18T05:10:18.792Z,98744.03
2019-01-18T05:12:47.640Z,98749.92
2019-01-18T05:15:19.130Z,98753.77
2019-01-18T05:17:48.253Z,98752.66
2019-01-18T05:20:17.633Z,98758.53
2019-01-18T05:22:46.562Z,98769.86
2019-01-18T05:25:15.782Z,98776.30
2019-01-18T05:27:44.724Z,98778.74
2019-01-18T05:30:16.614Z,98777.82
2019-01-18T05:32:45.568Z,98781.97
2019-01-18T05:35:14.545Z,98782.48
2019-01-18T05:37:43.476Z,98780.67
2019-01-18T05:40:14.275Z,98794.03
2019-01-18T05:42:43.327Z,98795.58
2019-01-18T05:45:14.988Z,98799.66
2019-01-18T05:47:43.926Z,98809.12
2019-01-18T05:50:15.421Z,98812.79
2019-01-18T05:52:44.357Z,98810.59
2019-01-18T05:55:13.344Z,98818.37
2019-01-18T05:57:42.277Z,98814.88
2019-01-18T06:00:17.019Z,98823.25
2019-01-18T06:02:45.977Z,98813.98
2019-01-18T06:05:16.245Z,98821.87
2019-01-18T06:07:45.244Z,98822.39
2019-01-18T06:10:14.176Z,98828.61
2019-01-18T06:12:43.058Z,98819.95
2019-01-18T06:15:12.125Z,98834.70
2019-01-18T06:17:41.191Z,98834.03
2019-01-18T06:20:43.275Z,98838.98
2019-01-18T06:23:12.135Z,98843.58
2019-01-18T06:25:40.939Z,98841.67
2019-01-18T06:28:09.789Z,98840.11
2019-01-18T06:30:38.656Z,98836.95
2019-01-18T06:33:07.463Z,98844.59
2019-01-18T06:35:36.384Z,98839.68
2019-01-18T06:38:05.449Z,98843.47
2019-01-18T06:40:34.393Z,98846.84
2019-01-18T06:43:03.182Z,98847.86
2019-01-18T06:45:32.855Z,98860.28
2019-01-18T06:48:01.809Z,98856.20
2019-01-18T06:50:31.031Z,98855.99
2019-01-18T06:52:59.818Z,98867.56
2019-01-18T06:55:28.672Z,98867.45
2019-01-18T06:57:57.630Z,98866.78
2019-01-18T07:00:31.792Z,98872.63
2019-01-18T07:03:01.677Z,98878.88
2019-01-18T07:05:30.563Z,98879.86
2019-01-18T07:07:59.551Z,98881.23
2019-01-18T07:10:28.496Z,98881.23
2019-01-18T07:12:57.303Z,98880.89
2019-01-18T07:15:26.237Z,98884.84
2019-01-18T07:17:55.103Z,98887.83
2019-01-18T07:20:24.027Z,98891.71
2019-01-18T07:22:52.849Z,98898.90
2019-01-18T07:25:24.017Z,98901.30
2019-01-18T07:27:52.883Z,98902.17
2019-01-18T07:30:30.818Z,98903.12
2019-01-18T07:32:59.754Z,98907.00
2019-01-18T07:35:28.703Z,98900.98
2019-01-18T07:37:57.652Z,98906.36
2019-01-18T07:40:26.575Z,98909.02
2019-01-18T07:42:55.387Z,98912.77
2019-01-18T07:45:26.086Z,98910.63
2019-01-18T07:47:54.954Z,98916.74
2019-01-18T07:50:23.910Z,98924.13
2019-01-18T07:52:52.964Z,98928.91
2019-01-18T07:55:21.898Z,98936.23
2019-01-18T07:57:50.771Z,98937.33
2019-01-18T08:00:21.860Z,98940.59
2019-01-18T08:02:50.913Z,98944.66
2019-01-18T08:05:20.422Z,98942.61
2019-01-18T08:07:49.352Z,98943.66
2019-01-18T08:10:19.334Z,98954.75
2019-01-18T08:12:48.213Z,98948.13
2019-01-18T08:15:21.640Z,98952.97
2019-01-18T08:17:50.931Z,98953.69
2019-01-18T08:20:21.976Z,98960.22
2019-01-18T08:22:50.985Z,98967.62
2019-01-18T08:25:19.927Z,98967.53
2019-01-18T08:27:48.966Z,98965.16
2019-01-18T08:30:20.060Z,98966.36
2019-01-18T08:32:49.129Z,98975.98
2019-01-18T08:35:19.190Z,98982.11
2019-01-18T08:37:48.165Z,98981.25
2019-01-18T08:40:19.664Z,98991.56
2019-01-18T08:42:48.626Z,98995.94
2019-01-18T08:45:20.843Z,98987.94
2019-01-18T08:47:49.837Z,98991.38
2019-01-18T08:50:18.746Z,98988.28
2019-01-18T08:52:47.649Z,98987.98
2019-01-18T08:55:16.511Z,98994.99
2019-01-18T08:57:45.367Z,98995.27
2019-01-18T09:00:16.917Z,98992.16
2019-01-18T09:02:45.779Z,99001.44
2019-01-18T09:05:16.980Z,98998.27
2019-01-18T09:07:45.765Z,99000.72
2019-01-18T09:10:16.015Z,98997.65
2019-01-18T09:12:44.882Z,99006.01
2019-01-18T09:15:14.283Z,99003.95
2019-01-18T09:17:43.247Z,99008.76
2019-01-18T09:20:20.128Z,99016.80
2019-01-18T09:22:49.046Z,99013.77
2019-01-18T09:25:18.019Z,99012.98
2019-01-18T09:27:46.942Z,99018.55
2019-01-18T09:30:18.302Z,99015.17
2019-01-18T09:32:47.350Z,99019.77
2019-01-18T09:35:17.327Z,99023.28
2019-01-18T09:37:46.875Z,99018.81
2019-01-18T09:40:24.259Z,99022.63
2019-01-18T09:42:53.121Z,99032.30
2019-01-18T09:45:21.973Z,99027.63
2019-01-18T09:47:50.817Z,99032.60
2019-01-18T09:50:21.908Z,99039.94
2019-01-18T09:52:50.870Z,99037.34
2019-01-18T09:55:19.933Z,99039.56
2019-01-18T09:57:48.864Z,99043.69
2019-01-18T10:00:26.332Z,99044.73
2019-01-18T10:02:55.656Z,99039.65
2019-01-18T10:05:24.704Z,99040.94
2019-01-18T10:07:53.624Z,99039.23
2019-01-18T10:10:22.823Z,99037.34
2019-01-18T10:12:51.941Z,99038.55
2019-01-18T10:15:23.336Z,99031.45
2019-01-18T10:17:52.193Z,99038.89
2019-01-18T10:20:21.051Z,99039.95
2019-01-18T10:22:50.205Z,99043.41
2019-01-18T10:25:19.466Z,99045.12
2019-01-18T10:27:48.382Z,99043.16
2019-01-18T10:30:19.444Z,99042.80
2019-01-18T10:32:48.472Z,99037.92
2019-01-18T10:35:18.376Z,99035.69
2019-01-18T10:37:47.387Z,99041.50
2019-01-18T10:40:16.871Z,99037.84
2019-01-18T10:42:46.221Z,99034.81
2019-01-18T10:45:15.640Z,99027.09
2019-01-18T10:47:44.826Z,99026.56
2019-01-18T10:50:15.947Z,99031.49
2019-01-18T10:52:44.879Z,99025.30
2019-01-18T10:55:13.728Z,99026.44
2019-01-18T10:57:42.596Z,99029.36
2019-01-18T11:00:18.182Z,99031.16
2019-01-18T11:02:46.975Z,99035.83
2019-01-18T11:05:16.820Z,99034.89
2019-01-18T11:07:45.678Z,99042.58
2019-01-18T11:10:14.615Z,99032.08
2019-01-18T11:12:43.627Z,99038.02
2019-01-18T11:15:13.957Z,99028.56
2019-01-18T11:17:42.917Z,99031.64
2019-01-18T11:20:17.421Z,99026.88
2019-01-18T11:22:46.200Z,99025.66
2019-01-18T11:25:15.151Z,99022.95
2019-01-18T11:27:44.115Z,99020.76
2019-01-18T11:30:14.916Z,99023.55
2019-01-18T11:32:43.866Z,99020.70
2019-01-18T11:35:12.821Z,99021.69
2019-01-18T11:37:42.846Z,99025.91
2019-01-18T11:40:15.697Z,99016.42
2019-01-18T11:42:44.656Z,99013.99
2019-01-18T11:45:14.200Z,99013.89
2019-01-18T11:47:43.066Z,99009.70
2019-01-18T11:50:18.275Z,99011.44
2019-01-18T11:52:47.141Z,99006.56
2019-01-18T11:55:16.031Z,99004.96
2019-01-18T11:57:44.960Z,99004.70
2019-01-18T12:00:16.552Z,99002.36
2019-01-18T12:02:45.511Z,99005.69
2019-01-18T12:05:14.424Z,98992.08
2019-01-18T12:07:43.516Z,98992.22
2019-01-18T12:10:16.400Z,98995.17
2019-01-18T12:12:45.356Z,98993.25
2019-01-18T12:15:14.368Z,98994.54
2019-01-18T12:17:43.692Z,98990.41
2019-01-18T12:20:15.340Z,98996.08
2019-01-18T12:22:44.373Z,98987.53
2019-01-18T12:25:13.902Z,98994.08
2019-01-18T12:27:42.763Z,98995.61
2019-01-18T12:30:15.109Z,98990.17
2019-01-18T12:32:44.001Z,98988.27
2019-01-18T12:35:13.228Z,98980.14
2019-01-18T12:37:42.172Z,98982.53
2019-01-18T12:40:11.217Z,98983.01
2019-01-18T12:42:40.147Z,98976.92
2019-01-18T12:45:12.792Z,98972.36
2019-01-18T12:47:41.581Z,98980.14
2019-01-18T12:50:15.710Z,98988.67
2019-01-18T12:52:44.562Z,98988.36
2019-01-18T12:55:13.487Z,98979.42
2019-01-18T12:57:42.348Z,98979.79
2019-01-18T13:00:14.315Z,98979.69
2019-01-18T13:02:43.370Z,98980.47
2019-01-18T13:05:15.269Z,98981.89
2019-01-18T13:07:45.421Z,98978.84
2019-01-18T13:10:15.115Z,98984.20
2019-01-18T13:12:43.982Z,98980.67
2019-01-18T13:15:16.915Z,98982.70
2019-01-18T13:17:45.708Z,98985.13
2019-01-18T13:20:15.478Z,98982.98
2019-01-18T13:22:44.399Z,98983.22
2019-01-18T13:25:13.870Z,98982.63
2019-01-18T13:27:42.934Z,98992.97
2019-01-18T13:30:14.234Z,98989.48
2019-01-18T13:32:43.171Z,98977.34
2019-01-18T13:35:12.090Z,98983.27
2019-01-18T13:37:41.122Z,98987.30
2019-01-18T13:40:13.559Z,98988.34
2019-01-18T13:42:42.489Z,98983.39
2019-01-18T13:45:11.920Z,98987.04
2019-01-18T13:47:40.975Z,98981.37
2019-01-18T13:50:14.920Z,98982.54
2019-01-18T13:52:43.861Z,98986.03
2019-01-18T13:55:15.892Z,98989.16
2019-01-18T13:57:44.832Z,98997.44
2019-01-18T14:00:14.390Z,98991.73
2019-01-18T14:02:48.412Z,98987.81
2019-01-18T14:05:14.321Z,98982.58
2019-01-18T14:07:43.253Z,98986.11
2019-01-18T14:10:17.917Z,98986.58
2019-01-18T14:12:46.900Z,98989.02
2019-01-18T14:15:18.992Z,98991.44
2019-01-18T14:17:47.838Z,98988.52
2019-01-18T14:20:20.938Z,98991.72
2019-01-18T14:22:48.282Z,98994.72
2019-01-18T14:25:17.376Z,98999.19
2019-01-18T14:27:47.344Z,98996.70
2019-01-18T14:30:26.201Z,98994.55
2019-01-18T14:32:56.021Z,98991.25
2019-01-18T14:35:25.089Z,98995.53
2019-01-18T14:37:54.208Z,99002.48
2019-01-18T14:40:23.186Z,98995.45
2019-01-18T14:42:52.358Z,98997.22
2019-01-18T14:45:33.146Z,98992.31
2019-01-18T14:48:01.992Z,98995.74
2019-01-18T14:50:30.840Z,98994.17
2019-01-18T14:52:59.712Z,98996.01
2019-01-18T14:55:28.517Z,98992.56
2019-01-18T14:57:57.484Z,98994.77
2019-01-18T15:00:30.229Z,98991.41
2019-01-18T15:03:02.469Z,98996.84
2019-01-18T15:05:29.910Z,98992.21
2019-01-18T15:07:58.808Z,98992.45
2019-01-18T15:10:27.653Z,98987.41
2019-01-18T15:12:59.669Z,98987.83
2019-01-18T15:15:28.522Z,98996.05
2019-01-18T15:17:57.481Z,98996.99
2019-01-18T15:20:28.331Z,98992.52
2019-01-18T15:22:57.365Z,98995.87
2019-01-18T15:25:26.327Z,98995.97
2019-01-18T15:27:55.255Z,98998.38
2019-01-18T15:30:26.615Z,99000.88
2019-01-18T15:32:55.465Z,99001.64
2019-01-18T15:35:29.644Z,98995.13
2019-01-18T15:37:58.509Z,99000.47
2019-01-18T15:40:28.585Z,98999.42
2019-01-18T15:42:59.644Z,98999.23
2019-01-18T15:45:28.425Z,98998.71
2019-01-18T15:47:57.403Z,99007.52
2019-01-18T15:50:28.716Z,99009.62
2019-01-18T15:52:57.670Z,99003.27
2019-01-18T15:55:26.713Z,99006.88
2019-01-18T15:57:55.664Z,99001.25
2019-01-18T16:00:44.168Z,99000.64
2019-01-18T16:03:16.178Z,99005.42
2019-01-18T16:05:43.613Z,99010.61
2019-01-18T16:08:13.229Z,99008.16
2019-01-18T16:10:42.077Z,99006.14
2019-01-18T16:13:12.568Z,99002.30
2019-01-18T16:16:07.287Z,99002.22
2019-01-18T16:18:36.138Z,99004.02
2019-01-18T16:21:05.021Z,99004.64
2019-01-18T16:23:33.899Z,98995.78
2019-01-18T16:26:02.769Z,98999.66
2019-01-18T16:28:31.624Z,98993.83
2019-01-18T16:31:00.489Z,98998.15
2019-01-18T16:33:29.367Z,98995.73
2019-01-18T16:35:58.248Z,98987.86
2019-01-18T16:38:27.216Z,98991.82
2019-01-18T16:40:56.093Z,98988.52
2019-01-18T16:43:28.184Z,98994.91
2019-01-18T16:45:57.120Z,98998.25
2019-01-18T16:48:25.970Z,98993.34
2019-01-18T16:50:54.783Z,98984.39
2019-01-18T16:53:23.723Z,98986.27
2019-01-18T16:55:52.564Z,98982.92
2019-01-18T16:58:21.539Z,98983.44
2019-01-18T17:00:52.466Z,98978.98
2019-01-18T17:03:21.876Z,98972.58
2019-01-18T17:05:50.897Z,98979.11
2019-01-18T17:08:19.810Z,98981.05
2019-01-18T17:10:48.820Z,98977.17
2019-01-18T17:13:17.906Z,98977.33
2019-01-18T17:15:46.697Z,98986.02
2019-01-18T17:18:15.622Z,98980.68
2019-01-18T17:20:44.999Z,98980.33
2019-01-18T17:23:13.915Z,98980.55
2019-01-18T17:25:42.858Z,98982.09
2019-01-18T17:28:11.706Z,98984.11
2019-01-18T17:30:40.562Z,98989.44
2019-01-18T17:33:09.507Z,98987.27
2019-01-18T17:36:05.124Z,98980.30
2019-01-18T17:38:55.778Z,98982.35
2019-01-18T17:41:49.361Z,98979.35
2019-01-18T17:44:55.255Z,98979.75
2019-01-18T17:48:03.982Z,98979.41
2019-01-18T17:51:12.025Z,98984.91
2019-01-18T17:53:57.436Z,98983.55
2019-01-18T17:56:49.651Z,98978.88
2019-01-18T17:59:55.436Z,98982.63
2019-01-18T18:02:46.959Z,98982.63
2019-01-18T18:05:40.855Z,98975.06
2019-01-18T18:08:49.761Z,98977.37
2019-01-18T18:11:41.758Z,98972.13
2019-01-18T18:14:53.406Z,98969.66
2019-01-18T18:17:43.757Z,98973.76
2019-01-18T18:20:41.137Z,98975.38
2019-01-18T18:23:48.344Z,98974.66
2019-01-18T18:27:11.052Z,98977.34
2019-01-18T18:30:23.201Z,98973.99
2019-01-18T18:33:25.236Z,98971.67
2019-01-18T18:36:17.308Z,98973.52
2019-01-18T18:39:09.430Z,98971.48
2019-01-18T18:41:54.326Z,98978.50
2019-01-18T18:45:07.808Z,98971.98
2019-01-18T18:48:13.617Z,98980.34
2019-01-18T18:51:27.997Z,98964.59
2019-01-18T18:54:41.010Z,98974.22
2019-01-18T18:57:25.378Z,98965.06
2019-01-18T19:00:31.021Z,98966.68
2019-01-18T19:03:33.734Z,98965.97
2019-01-18T19:06:31.253Z,98961.00
2019-01-18T19:09:37.617Z,98956.31
2019-01-18T19:12:53.823Z,98953.20
2019-01-18T19:15:49.744Z,98953.02
2019-01-18T19:18:47.331Z,98949.13
2019-01-18T19:21:46.860Z,98952.15
2019-01-18T19:24:59.712Z,98945.45
2019-01-18T19:28:10.865Z,98940.73
2019-01-18T19:31:03.347Z,98946.55
2019-01-18T19:34:04.403Z,98946.61
2019-01-18T19:37:14.165Z,98943.56
2019-01-18T19:39:54.027Z,98944.85
2019-01-18T19:42:58.689Z,98937.41
2019-01-18T19:46:16.884Z,98943.13
2019-01-18T19:49:22.648Z,98942.77
2019-01-18T19:52:08.226Z,98946.14
2019-01-18T19:54:58.807Z,98944.97
2019-01-18T19:58:06.634Z,98947.73
2019-01-18T20:01:17.637Z,98941.09
2019-01-18T20:04:22.606Z,98935.19
2019-01-18T20:07:01.412Z,98943.05
2019-01-18T20:10:08.393Z,98935.02
2019-01-18T20:13:28.014Z,98933.22
2019-01-18T20:16:08.983Z,98938.64
2019-01-18T20:19:18.488Z,98936.05
2019-01-18T20:22:19.040Z,98935.56
2019-01-18T20:25:29.456Z,98932.90
2019-01-18T20:28:42.614Z,98931.50
2019-01-18T20:31:35.692Z,98939.25
2019-01-18T20:34:34.459Z,98941.45
2019-01-18T20:38:05.655Z,98941.47
2019-01-18T20:40:51.647Z,98941.14
2019-01-18T20:43:50.429Z,98936.71
2019-01-18T20:47:04.610Z,98935.27
2019-01-18T20:50:04.343Z,98941.28
2019-01-18T20:53:13.232Z,98936.80
2019-01-18T20:56:40.602Z,98933.10
2019-01-18T20:59:44.816Z,98936.23
2019-01-18T21:02:32.769Z,98938.78
2019-01-18T21:05:22.041Z,98941.96
2019-01-18T21:08:27.020Z,98939.17
2019-01-18T21:11:06.374Z,98931.66
2019-01-18T21:14:02.810Z,98931.66
2019-01-18T21:17:06.733Z,98940.69
2019-01-18T21:19:56.125Z,98937.67
2019-01-18T21:23:04.746Z,98938.97
2019-01-18T21:26:08.280Z,98943.27
2019-01-18T21:29:04.918Z,98947.69
2019-01-18T21:31:58.021Z,98948.72
2019-01-18T21:34:39.237Z,98948.44
2019-01-18T21:38:03.983Z,98948.44
2019-01-18T21:40:59.174Z,98940.18
2019-01-18T21:44:20.951Z,98942.44
2019-01-18T21:47:26.248Z,98941.80
2019-01-18T21:50:26.288Z,98941.86
2019-01-18T21:53:27.331Z,98941.49
2019-01-18T21:56:08.926Z,98935.66
2019-01-18T22:03:02.474Z,98933.54
2019-01-18T22:06:24.808Z,98945.78
2019-01-18T22:09:14.490Z,98945.52
2019-01-18T22:12:23.059Z,98941.28
2019-01-18T22:15:20.698Z,98938.70
2019-01-18T22:18:52.181Z,98939.27
2019-01-18T22:21:50.726Z,98934.92
2019-01-18T22:25:12.930Z,98937.98
2019-01-18T22:27:55.396Z,98937.62
2019-01-18T22:30:47.238Z,98940.77
2019-01-18T22:34:05.333Z,98937.76
2019-01-18T22:37:15.681Z,98940.52
2019-01-18T22:40:05.762Z,98946.42
2019-01-18T22:42:58.715Z,98947.97
2019-01-18T22:45:46.472Z,98947.76
2019-01-18T22:48:42.012Z,98938.48
2019-01-18T22:52:10.193Z,98947.89
2019-01-18T22:55:35.781Z,98941.81
2019-01-18T22:58:33.202Z,98944.00
2019-01-18T23:01:55.057Z,98939.55
2019-01-18T23:04:55.297Z,98941.69
2019-01-18T23:07:50.637Z,98936.02
2019-01-18T23:10:55.560Z,98939.55
2019-01-18T23:14:07.669Z,98939.67
2019-01-18T23:17:17.742Z,98931.06
2019-01-18T23:20:39.930Z,98934.08
2019-01-18T23:23:33.494Z,98929.36
2019-01-18T23:26:23.710Z,98933.44
2019-01-18T23:29:16.894Z,98927.31
2019-01-18T23:32:13.436Z,98924.97
2019-01-18T23:35:05.071Z,98925.73
2019-01-18T23:37:45.867Z,98923.09
2019-01-18T23:40:39.849Z,98922.59
2019-01-18T23:43:38.736Z,98920.73
2019-01-18T23:46:59.452Z,98907.48
2019-01-18T23:49:54.504Z,98915.23
2019-01-18T23:52:47.359Z,98909.02
2019-01-18T23:55:59.608Z,98906.39
2019-01-18T23:58:56.009Z,98907.73
